Latest Weather Observations for Mount Read

IDT60801

Issued at 11:05 pm EST Thursday 24 April 2014 (issued every 30 minutes, with the page automatically refreshed every 10 minutes)

About weather observations | Map of weather stations | Latest weather observations for TAS | Other Formats
Station Details ID: 097085 Name: MOUNT READ Lat: -41.84 Lon: 145.54 Height: 1119.5 m
Data from the previous 72 hours. | See also: Recent months at Mount Read
Date/Time
EST
Temp
°C
App
Temp
°C
Dew
Point
Rel
Hum
%
Delta-T
°C
Wind Press
QNH
hPa
Press
MSL
hPa
Rain
since 9 am
mm
Dir
 
Spd
km/h
Gust
km/h
Spd
kts
Gust
kts
24/11:00pm 0.6 -4.9 0.5 99 0.0 W 19 24 10 13 1017.1 1017.3 5.0
24/10:30pm 0.4 -6.5 0.3 99 0.0 WSW 26 32 14 17 1016.9 - 4.8
24/10:00pm 0.2 -5.6 0.1 99 0.0 W 20 28 11 15 1016.9 1017.1 4.8
24/09:30pm 0.2 -6.7 0.1 99 0.0 SW 26 32 14 17 1016.4 - 4.8
24/09:00pm 0.2 -6.7 0.1 99 0.0 WSW 26 30 14 16 1016.0 1016.2 4.8
24/08:30pm 0.2 -6.3 0.1 99 0.0 SW 24 32 13 17 1015.6 - 4.8
24/08:00pm -0.1 -7.1 -0.2 99 0.0 SW 26 33 14 18 1015.2 1015.4 4.8
24/07:30pm -0.2 -7.5 -0.3 99 0.0 SW 28 35 15 19 1015.0 - 4.8
24/07:00pm -0.1 -7.1 -0.2 99 0.0 SW 26 39 14 21 1014.4 1014.6 4.8
24/06:30pm 0.0 -8.1 -0.1 99 0.0 SW 32 41 17 22 1014.2 - 4.8
24/06:00pm -0.1 -7.1 -0.2 99 0.0 SW 26 39 14 21 1013.7 1013.8 4.8
24/05:30pm -0.1 -8.2 -0.2 99 0.0 SW 32 43 17 23 1013.2 - 4.8
24/05:02pm 0.2 -7.5 -0.1 98 0.1 SW 30 48 16 26 1012.9 - 4.8
24/05:00pm 0.2 -7.9 -0.1 98 0.1 SW 32 48 17 26 1012.9 1013.0 4.8
24/04:57pm 0.3 -7.4 0.2 99 0.0 SW 30 48 16 26 1012.8 - 4.8
24/04:30pm 0.2 -8.5 -0.2 97 0.2 SW 35 48 19 26 1012.3 - 4.8
24/04:10pm 0.4 -9.7 0.3 99 0.0 SW 43 63 23 34 1011.9 - 4.8
24/04:00pm 0.4 -9.9 0.3 99 0.0 SW 44 56 24 30 1011.6 1011.7 4.8
24/03:35pm 0.1 -10.1 0.0 99 0.0 SW 43 61 23 33 1011.1 - 4.8
24/03:30pm 0.4 -9.3 0.3 99 0.0 SW 41 54 22 29 1011.2 - 4.8
24/03:00pm 0.4 -10.3 0.3 99 0.0 SW 46 61 25 33 1010.5 1010.6 4.8
24/02:30pm 0.5 -10.2 0.4 99 0.0 SW 46 59 25 32 1010.1 - 4.6
24/02:08pm 0.7 -9.0 0.6 99 0.0 SW 41 59 22 32 1010.2 - 4.4
24/02:00pm 1.1 -9.9 1.0 99 0.0 SW 48 63 26 34 1009.9 1009.9 4.4
24/01:38pm 0.1 -10.1 0.0 99 0.0 SW 43 67 23 36 1009.6 - 4.2
24/01:30pm 0.6 -9.7 0.5 99 0.0 SW 44 61 24 33 1009.5 - 4.0
24/01:00pm 0.4 -9.7 0.3 99 0.0 SW 43 56 23 30 1009.3 1009.3 4.0
24/12:30pm 0.9 -10.5 0.8 99 0.0 SW 50 65 27 35 1008.9 - 4.0
24/12:03pm 0.6 -9.7 0.5 99 0.0 WSW 44 65 24 35 1008.3 - 3.4
24/12:00pm 0.8 -9.8 0.7 99 0.0 WSW 46 65 25 35 1008.3 1008.3 3.4
24/11:47am 0.9 -9.3 0.8 99 0.0 WSW 44 63 24 34 1008.3 - 3.4
24/11:30am 0.3 -10.0 0.2 99 0.0 WSW 44 59 24 32 1008.2 - 3.0
24/11:16am 0.1 -11.0 0.0 99 0.0 WSW 48 69 26 37 1007.9 - 2.6
24/11:00am 0.1 -11.8 0.0 99 0.0 SW 52 63 28 34 1007.3 1007.2 2.2
24/10:33am 0.0 -11.1 -0.1 99 0.0 SW 48 76 26 41 1006.5 - 1.2
24/10:30am 0.0 -11.1 -0.1 99 0.0 SW 48 61 26 33 1006.6 - 1.2
24/10:08am -0.4 -12.7 -0.5 99 0.0 SW 54 74 29 40 1006.1 - 0.4
24/10:00am -0.2 -12.9 -0.3 99 0.0 SW 56 72 30 39 1005.6 1005.5 0.4
24/09:30am -0.1 -12.0 -0.2 99 0.0 SW 52 72 28 39 1005.0 - 0.0
24/09:22am -0.3 -13.0 -0.4 99 0.0 WSW 56 74 30 40 1004.7 - 0.0
24/09:09am 0.0 -12.8 -0.1 99 0.0 SW 57 69 31 37 1004.7 - 0.0
24/09:03am 0.6 -8.0 0.5 99 0.0 WSW 35 57 19 31 1005.1 - 0.0
24/09:00am 0.8 -7.7 0.7 99 0.0 W 35 48 19 26 1005.0 1004.8 32.0
24/08:53am 0.6 -8.7 0.5 99 0.0 W 39 48 21 26 1004.8 - 31.8
24/08:30am 0.1 -11.0 0.0 99 0.0 SW 48 74 26 40 1004.1 - 31.4
24/08:00am 0.8 -10.6 0.7 99 0.0 SW 50 70 27 38 1003.2 1003.0 30.6
24/07:32am 0.7 -10.7 0.6 99 0.0 SW 50 70 27 38 1002.7 - 29.4
24/07:30am 0.7 -11.1 0.6 99 0.0 SW 52 70 28 38 1002.7 - 29.4
24/07:04am 0.0 -12.3 -0.1 99 0.0 WSW 54 74 29 40 1002.5 - 29.4
24/07:00am 0.0 -13.2 -0.1 99 0.0 WSW 59 76 32 41 1001.9 1001.8 29.4
24/06:30am 1.2 -10.5 1.1 99 0.0 WSW 52 74 28 40 1002.1 - 29.0
24/06:02am 2.4 -8.0 2.3 99 0.0 W 46 67 25 36 1001.6 - 28.4
24/06:00am 2.5 -7.5 2.4 99 0.0 W 44 59 24 32 1001.7 1001.5 28.4
24/05:30am 3.2 -6.5 3.1 99 0.0 W 43 69 23 37 1002.1 - 28.4
24/05:21am 3.2 -6.5 3.1 99 0.0 W 43 69 23 37 1001.7 - 28.4
24/05:00am 3.1 -3.7 3.0 99 0.0 WNW 28 46 15 25 1001.6 1001.4 27.8
24/04:51am 3.0 -3.8 2.9 99 0.0 NW 28 50 15 27 1001.7 - 27.6
24/04:30am 2.4 -5.3 2.3 99 0.0 WNW 32 43 17 23 1001.4 - 26.4
24/04:00am 3.1 -5.8 3.0 99 0.0 WNW 39 57 21 31 1001.3 1001.1 25.8
24/03:39am 3.0 -6.3 2.9 99 0.0 W 41 59 22 32 1001.5 - 24.0
24/03:30am 3.1 -6.6 3.0 99 0.0 W 43 57 23 31 1001.5 - 23.0
24/03:22am 3.0 -5.9 2.9 99 0.0 W 39 57 21 31 1001.4 - 22.2
24/03:20am 3.0 -5.2 2.9 99 0.0 W 35 43 19 23 1001.5 - 22.0
24/03:02am 1.9 -10.6 1.8 99 0.0 W 57 78 31 42 1001.2 - 20.4
24/03:01am 2.6 -10.6 2.5 99 0.0 W 61 78 33 42 1000.8 - 20.0
24/03:00am 4.9 -3.3 4.8 99 0.0 NW 37 72 20 39 1001.2 1000.9 19.8
24/02:59am 6.2 0.4 6.1 99 0.0 NW 26 41 14 22 1001.4 - 19.2
24/02:30am 6.1 -4.7 6.0 99 0.0 N 52 74 28 40 1000.2 - 13.8
24/02:00am 6.0 -3.3 5.9 99 0.0 N 44 74 24 40 1001.1 1000.8 12.4
24/01:40am 5.9 -3.4 5.8 99 0.0 N 44 65 24 35 1001.6 - 12.2
24/01:30am 5.9 -3.4 5.8 99 0.0 N 44 57 24 31 1001.8 - 12.2
24/01:00am 5.8 -3.9 5.7 99 0.0 N 46 69 25 37 1002.5 1002.3 11.2
24/12:33am 5.7 -3.7 5.6 99 0.0 N 44 65 24 35 1003.1 - 11.2
24/12:30am 5.7 -3.7 5.6 99 0.0 N 44 59 24 32 1003.2 - 11.2
24/12:00am 5.7 -3.1 5.6 99 0.0 N 41 61 22 33 1003.8 1003.7 11.0
 
Date/Time
EST
Temp
°C
App
Temp
°C
Dew
Point
Rel
Hum
%
Delta-T
°C
Wind Press
QNH
hPa
Press
MSL
hPa
Rain
since 9 am
mm
Dir
 
Spd
km/h
Gust
km/h
Spd
kts
Gust
kts
23/11:30pm 5.7 -4.0 5.6 99 0.0 N 46 69 25 37 1004.5 - 10.2
23/11:00pm 5.7 -3.7 5.6 99 0.0 N 44 65 24 35 1004.8 1004.7 10.0
23/10:37pm 5.7 -3.1 5.6 99 0.0 N 41 59 22 32 1005.3 - 9.4
23/10:30pm 5.7 -3.7 5.6 99 0.0 N 44 59 24 32 1005.4 - 9.2
23/10:00pm 5.6 -3.2 5.5 99 0.0 N 41 59 22 32 1006.0 1005.9 8.0
23/09:31pm 5.3 -2.1 5.2 99 0.0 N 33 52 18 28 1006.4 - 3.2
23/09:30pm 5.3 -2.4 5.2 99 0.0 N 35 52 19 28 1006.4 - 3.2
23/09:00pm 5.1 -2.7 5.0 99 0.0 N 35 48 19 26 1007.0 1006.9 0.4
23/08:38pm 5.0 -2.8 4.9 99 0.0 N 35 54 19 29 1007.2 - 0.2
23/08:30pm 5.1 -2.7 5.0 99 0.0 N 35 48 19 26 1007.2 - 0.0
23/08:00pm 5.0 -2.2 4.9 99 0.0 N 32 43 17 23 1007.5 1007.5 0.0
23/07:30pm 5.0 -2.4 4.9 99 0.0 N 33 44 18 24 1008.0 - 0.0
23/07:08pm 5.0 -2.2 4.9 99 0.0 N 32 52 17 28 1008.1 - 0.0
23/07:00pm 4.9 -2.0 4.8 99 0.0 N 30 46 16 25 1008.2 1008.2 0.0
23/06:30pm 4.8 -1.3 4.7 99 0.0 N 26 35 14 19 1008.4 - 0.0
23/06:00pm 4.8 -0.9 4.7 99 0.0 N 24 33 13 18 1008.6 1008.6 0.0
23/05:30pm 5.0 -1.1 4.9 99 0.0 N 26 33 14 18 1009.0 - 0.0
23/05:00pm 4.9 -2.3 4.8 99 0.0 N 32 44 17 24 1009.0 1009.0 0.0
23/04:30pm 5.0 -2.2 4.9 99 0.0 N 32 43 17 23 1009.2 - 0.0
23/04:00pm 5.2 -1.6 5.1 99 0.0 N 30 37 16 20 1009.4 1009.4 0.0
23/03:30pm 5.2 -1.6 5.1 99 0.0 N 30 39 16 21 1009.4 - 0.0
23/03:00pm 5.5 -1.6 5.4 99 0.0 N 32 43 17 23 1009.5 1009.5 0.0
23/02:30pm 5.9 -0.4 5.8 99 0.0 N 28 37 15 20 1009.8 - 0.0
23/02:00pm 5.3 -0.7 5.2 99 0.0 N 26 33 14 18 1010.3 1010.3 0.0
23/01:30pm 5.0 -1.8 4.9 99 0.0 N 30 37 16 20 1010.8 - 0.0
23/01:00pm 5.0 -1.5 4.9 99 0.0 N 28 37 15 20 1011.2 1011.2 0.0
23/12:30pm 5.1 -1.0 5.0 99 0.0 N 26 33 14 18 1011.5 - 0.0
23/12:00pm 4.7 -1.1 4.6 99 0.0 N 24 35 13 19 1012.2 1012.3 0.0
23/11:30am 4.5 -2.1 4.4 99 0.0 N 28 44 15 24 1012.4 - 0.0
23/11:00am 5.4 -0.6 5.3 99 0.0 N 26 35 14 19 1012.5 1012.6 0.0
23/10:30am 4.8 -1.3 4.7 99 0.0 N 26 39 14 21 1012.5 - 0.0
23/10:00am 4.7 -1.8 4.6 99 0.0 N 28 35 15 19 1013.0 1013.1 0.0
23/09:30am 4.5 -1.7 4.4 99 0.0 N 26 35 14 19 1013.0 - 0.0
23/09:00am 4.2 -1.7 4.1 99 0.0 N 24 30 13 16 1013.2 1013.3 7.4
23/08:30am 3.8 -1.8 3.7 99 0.0 N 22 28 12 15 1013.2 - 7.4
23/08:00am 3.7 -1.3 3.6 99 0.0 NNW 19 22 10 12 1013.3 1013.4 7.4
23/07:30am 3.8 -1.2 3.7 99 0.0 N 19 30 10 16 1013.2 - 7.4
23/07:00am 3.6 -0.7 3.5 99 0.0 N 15 22 8 12 1013.2 1013.3 7.4
23/06:30am 3.7 -0.5 3.6 99 0.0 NNW 15 22 8 12 1013.2 - 7.2
23/06:00am 3.9 0.8 3.8 99 0.0 NNW 9 20 5 11 1013.4 1013.5 7.2
23/05:30am 3.8 -0.4 3.7 99 0.0 NNW 15 24 8 13 1013.4 - 7.2
23/05:00am 3.6 -1.4 3.5 99 0.0 NNW 19 32 10 17 1013.2 1013.3 7.2
23/04:30am 3.1 -2.6 3.0 99 0.0 WNW 22 30 12 16 1013.1 - 7.0
23/04:00am 3.4 -2.6 3.3 99 0.0 WNW 24 35 13 19 1013.3 1013.4 7.0
23/03:30am 3.5 -0.4 3.4 99 0.0 NW 13 22 7 12 1013.2 - 7.0
23/03:00am 3.6 -1.6 3.5 99 0.0 WNW 20 30 11 16 1013.3 1013.4 7.0
23/02:30am 3.9 -1.6 3.8 99 0.0 WNW 22 32 12 17 1013.5 - 7.0
23/02:00am 3.8 -1.2 3.7 99 0.0 WNW 19 32 10 17 1013.7 1013.8 7.0
23/01:30am 3.6 -1.6 3.5 99 0.0 WNW 20 32 11 17 1013.7 - 7.0
23/01:00am 3.8 -2.9 3.7 99 0.0 WNW 28 39 15 21 1013.7 1013.8 7.0
23/12:30am 4.0 -1.1 3.9 99 0.0 WNW 20 32 11 17 1013.9 - 6.4
23/12:00am 4.0 -0.9 3.9 99 0.0 W 19 24 10 13 1013.7 1013.8 6.2
 
Date/Time
EST
Temp
°C
App
Temp
°C
Dew
Point
Rel
Hum
%
Delta-T
°C
Wind Press
QNH
hPa
Press
MSL
hPa
Rain
since 9 am
mm
Dir
 
Spd
km/h
Gust
km/h
Spd
kts
Gust
kts
22/11:30pm 4.0 -1.1 3.9 99 0.0 W 20 28 11 15 1013.9 - 6.2
22/11:00pm 3.9 -1.3 3.8 99 0.0 WNW 20 32 11 17 1014.0 1014.1 6.2
22/10:30pm 3.8 -1.8 3.7 99 0.0 W 22 32 12 17 1014.0 - 6.2
22/10:00pm 3.5 -2.5 3.4 99 0.0 W 24 32 13 17 1014.0 1014.1 6.2
22/09:30pm 3.9 -2.8 3.8 99 0.0 W 28 37 15 20 1013.9 - 6.2
22/09:00pm 4.0 -3.4 3.9 99 0.0 WSW 32 39 17 21 1013.5 1013.6 6.2
22/08:30pm 3.8 -3.3 3.7 99 0.0 W 30 41 16 22 1013.4 - 6.2
22/08:00pm 4.1 -2.9 4.0 99 0.0 W 30 37 16 20 1013.3 1013.4 6.2
22/07:30pm 4.3 -2.3 4.2 99 0.0 W 28 39 15 21 1013.2 - 6.2
22/07:00pm 4.1 -2.9 4.0 99 0.0 W 30 37 16 20 1013.0 1013.1 6.2
22/06:30pm 4.3 -4.0 4.2 99 0.0 W 37 52 20 28 1012.4 - 6.2
22/06:21pm 4.3 -3.2 4.2 99 0.0 W 33 52 18 28 1012.2 - 6.0
22/06:00pm 4.5 -2.1 4.4 99 0.0 W 28 35 15 19 1012.2 1012.3 6.0
22/05:30pm 4.3 -1.5 4.2 99 0.0 W 24 32 13 17 1011.9 - 5.0
22/05:00pm 4.2 -2.0 4.1 99 0.0 W 26 39 14 21 1011.8 1011.8 5.0
22/04:30pm 4.5 -2.8 4.4 99 0.0 WNW 32 46 17 25 1011.6 - 5.0
22/04:00pm 4.3 -3.2 4.2 99 0.0 W 33 44 18 24 1011.4 1011.5 5.0
22/03:30pm 4.0 -3.0 3.9 99 0.0 W 30 39 16 21 1011.4 - 5.0
22/03:00pm 4.9 -0.8 4.8 99 0.0 WNW 24 35 13 19 1011.3 1011.4 5.0
22/02:30pm 5.2 -0.8 5.1 99 0.0 W 26 37 14 20 1011.1 - 5.0
22/02:00pm 4.8 -1.3 4.7 99 0.0 W 26 41 14 22 1011.0 1011.0 5.0
22/01:30pm 5.0 -0.7 4.9 99 0.0 W 24 37 13 20 1010.9 - 5.0
22/01:00pm 5.1 -1.7 5.0 99 0.0 W 30 41 16 22 1010.6 1010.7 5.0
22/12:30pm 5.1 -2.7 5.0 99 0.0 W 35 48 19 26 1010.5 - 4.8
22/12:00pm 5.6 -1.7 5.5 99 0.0 W 33 41 18 22 1010.6 1010.7 4.4
22/11:30am 6.2 0.7 6.1 99 0.0 WSW 24 32 13 17 1010.4 - 4.0
22/11:00am 6.1 0.6 6.0 99 0.0 WSW 24 33 13 18 1010.2 1010.2 3.8
22/10:30am 6.5 0.7 6.4 99 0.0 WSW 26 35 14 19 1009.8 - 2.8
22/10:00am 6.5 1.1 6.4 99 0.0 WSW 24 33 13 18 1009.6 1009.6 2.8
22/09:30am 5.8 -1.8 5.7 99 0.0 WNW 35 46 19 25 1009.0 - 1.8
22/09:00am 5.8 -0.1 5.7 99 0.0 NW 26 41 14 22 1008.9 1008.8 13.0
22/08:54am 5.9 0.8 5.8 99 0.0 N 22 35 12 19 1008.6 - 13.0
22/08:36am 6.1 -3.0 6.0 99 0.0 WNW 43 63 23 34 1009.2 - 13.0
22/08:30am 6.0 -3.1 5.9 99 0.0 WNW 43 57 23 31 1008.9 - 13.0
22/08:00am 6.5 -2.5 6.4 99 0.0 NW 43 63 23 34 1008.6 1008.6 12.6
22/07:38am 7.2 -1.8 7.1 99 0.0 WNW 44 63 24 34 1008.2 - 12.4
22/07:30am 7.0 -3.6 6.9 99 0.0 WNW 52 63 28 34 1007.9 - 12.4
22/07:07am 7.1 0.1 7.0 99 0.0 NW 33 54 18 29 1007.7 - 11.6
22/07:00am 7.2 0.3 7.1 99 0.0 NW 33 48 18 26 1007.7 1007.7 11.6
22/06:30am 7.2 0.4 7.1 99 0.0 WNW 32 54 17 29 1007.5 - 11.6
22/06:28am 7.3 1.3 7.2 99 0.0 NW 28 54 15 29 1007.4 - 11.6
22/06:00am 7.5 0.2 7.4 99 0.1 WNW 35 54 19 29 1007.3 1007.2 11.6
22/05:30am 7.9 1.3 7.8 99 0.1 WNW 32 54 17 29 1007.5 - 11.4
22/05:02am 7.9 2.1 7.8 99 0.1 NW 28 46 15 25 1007.1 - 11.4
22/05:00am 8.1 2.7 8.0 99 0.1 NW 26 46 14 25 1007.1 1007.0 11.4
22/04:30am 8.3 1.6 8.2 99 0.1 NW 33 54 18 29 1007.3 - 11.2
22/04:27am 8.3 1.2 8.2 99 0.1 NW 35 54 19 29 1007.2 - 11.2
22/04:24am 8.2 0.7 8.1 99 0.1 NW 37 54 20 29 1007.1 - 11.2
22/04:00am 8.6 2.0 8.5 99 0.1 NNW 33 63 18 34 1007.0 1006.9 11.2
22/03:30am 9.1 1.9 9.0 99 0.1 N 37 56 20 30 1006.2 - 10.6
22/03:00am 9.2 2.4 9.1 99 0.1 NNW 35 57 19 31 1006.4 1006.3 9.8
22/02:30am 9.2 2.7 9.1 99 0.1 NNW 33 63 18 34 1006.5 - 9.8
22/02:02am 9.0 1.4 8.9 99 0.1 N 39 59 21 32 1006.4 - 9.2
22/02:00am 9.1 1.1 9.0 99 0.1 N 41 59 22 32 1006.4 1006.3 9.0
22/01:30am 9.0 1.0 8.9 99 0.1 N 41 65 22 35 1006.6 - 9.0
22/01:02am 8.8 0.3 8.7 99 0.1 N 43 61 23 33 1006.9 - 9.0
22/01:00am 8.8 0.2 8.7 99 0.1 N 44 61 24 33 1006.7 1006.7 9.0
22/12:30am 8.5 -1.0 8.4 99 0.1 N 48 69 26 37 1006.5 - 8.8
22/12:00am 8.5 -2.1 8.4 99 0.1 N 54 76 29 41 1006.5 1006.4 8.8
 
Date/Time
EST
Temp
°C
App
Temp
°C
Dew
Point
Rel
Hum
%
Delta-T
°C
Wind Press
QNH
hPa
Press
MSL
hPa
Rain
since 9 am
mm
Dir
 
Spd
km/h
Gust
km/h
Spd
kts
Gust
kts
21/11:30pm 8.3 -1.2 8.2 99 0.1 N 48 70 26 38 1007.0 - 8.8

Other Formats:

Comma delimited format used in spreadsheet applications
http://www.bom.gov.au/fwo/IDT60801/IDT60801.95952.axf

JavaScript Object Notation format (JSON) in row-major order
http://www.bom.gov.au/fwo/IDT60801/IDT60801.95952.json